createdAt,value
2019-05-13T00:00:54.459Z,97980.64
2019-05-13T00:03:21.040Z,97971.44
2019-05-13T00:05:50.034Z,97987.98
2019-05-13T00:08:21.650Z,97988.98
2019-05-13T00:10:46.996Z,98002.89
2019-05-13T00:13:14.774Z,98023.64
2019-05-13T00:15:44.454Z,98023.59
2019-05-13T00:18:11.309Z,98009.63
2019-05-13T00:20:37.929Z,98064.25
2019-05-13T00:23:06.206Z,98056.73
2019-05-13T00:25:33.864Z,98055.81
2019-05-13T00:28:00.719Z,98053.02
2019-05-13T00:30:28.182Z,98055.61
2019-05-13T00:32:54.769Z,98068.62
2019-05-13T00:35:23.313Z,98047.48
2019-05-13T00:37:54.295Z,98065.08
2019-05-13T00:40:20.967Z,98045.39
2019-05-13T00:42:47.549Z,98069.12
2019-05-13T00:47:53.950Z,98065.08
2019-05-13T00:50:20.547Z,98043.53
2019-05-13T00:52:47.425Z,98062.84
2019-05-13T00:55:15.069Z,98065.35
2019-05-13T00:57:43.627Z,98071.16
2019-05-13T01:00:10.768Z,98061.77
2019-05-13T01:02:39.881Z,98051.39
2019-05-13T01:05:06.732Z,98069.47
2019-05-13T01:07:34.157Z,98071.75
2019-05-13T01:10:04.293Z,98053.03
2019-05-13T01:12:31.062Z,98059.66
2019-05-13T01:14:57.681Z,98055.61
2019-05-13T01:17:24.884Z,98078.81
2019-05-13T01:19:53.784Z,98082.84
2019-05-13T01:22:20.435Z,98062.57
2019-05-13T01:24:48.911Z,98080.83
2019-05-13T01:27:15.766Z,98070.59
2019-05-13T01:29:43.486Z,98084.00
2019-05-13T01:32:14.685Z,98070.73
2019-05-13T01:34:41.272Z,98066.27
2019-05-13T01:37:08.129Z,98053.91
2019-05-13T01:39:36.914Z,98064.95
2019-05-13T01:42:04.241Z,98052.95
2019-05-13T01:44:32.964Z,98064.09
2019-05-13T01:46:59.924Z,98056.50
2019-05-13T01:49:26.709Z,98074.69
2019-05-13T01:51:54.129Z,98047.05
2019-05-13T01:56:54.041Z,98078.06
2019-05-13T01:59:20.945Z,98039.83
2019-05-13T02:01:48.408Z,98031.95
2019-05-13T02:04:14.976Z,98024.72
2019-05-13T02:06:44.106Z,98018.38
2019-05-13T02:09:10.722Z,98024.49
2019-05-13T02:11:37.310Z,97985.72
2019-05-13T02:14:05.729Z,98019.64
2019-05-13T02:16:33.916Z,97989.47
2019-05-13T02:19:00.722Z,98004.51
2019-05-13T02:21:27.308Z,97988.41
2019-05-13T02:23:54.856Z,97983.06
2019-05-13T02:26:23.872Z,97996.47
2019-05-13T02:28:50.049Z,97987.39
2019-05-13T02:31:26.929Z,97999.37
2019-05-13T02:33:46.545Z,97966.53
2019-05-13T02:36:13.690Z,97968.89
2019-05-13T02:38:42.921Z,97954.22
2019-05-13T02:41:13.136Z,97972.14
2019-05-13T02:43:41.361Z,97973.97
2019-05-13T02:46:08.590Z,97998.09
2019-05-13T02:48:35.169Z,97962.19
2019-05-13T02:51:03.784Z,97974.39
2019-05-13T02:53:34.869Z,97965.66
2019-05-13T02:56:03.048Z,97962.64
2019-05-13T02:58:32.950Z,97961.00
2019-05-13T03:00:58.614Z,97957.14
2019-05-13T03:03:25.382Z,97964.32
2019-05-13T03:05:52.978Z,97961.00
2019-05-13T03:08:35.229Z,97941.08
2019-05-13T03:10:48.937Z,97961.77
2019-05-13T03:13:15.510Z,97974.72
2019-05-13T03:15:42.998Z,97960.19
2019-05-13T03:18:13.043Z,97961.86
2019-05-13T03:20:38.031Z,97960.00
2019-05-13T03:23:05.368Z,97936.53
2019-05-13T03:25:33.075Z,97966.17
2019-05-13T03:28:03.228Z,97951.17
2019-05-13T03:30:35.229Z,97970.09
2019-05-13T03:33:09.060Z,97931.36
2019-05-13T03:35:28.939Z,97968.50
2019-05-13T03:37:57.274Z,97958.64
2019-05-13T03:43:12.849Z,97959.55
2019-05-13T03:45:38.974Z,97996.39
2019-05-13T03:48:05.872Z,97971.08
2019-05-13T03:50:34.935Z,97977.72
2019-05-13T03:53:03.058Z,97932.72
2019-05-13T03:55:32.855Z,97970.34
2019-05-13T03:58:02.646Z,97966.62
2019-05-13T04:03:14.266Z,98000.44
2019-05-13T04:05:43.613Z,97974.27
2019-05-13T04:08:09.459Z,98016.73
2019-05-13T04:10:37.862Z,98022.70
2019-05-13T04:13:04.667Z,98015.44
2019-05-13T04:15:32.050Z,98034.85
2019-05-13T04:18:02.714Z,98030.18
2019-05-13T04:20:28.116Z,98083.07
2019-05-13T04:22:54.691Z,98058.47
2019-05-13T04:25:23.741Z,98044.67
2019-05-13T04:27:52.417Z,98077.30
2019-05-13T04:30:22.102Z,98064.11
2019-05-13T04:32:53.461Z,98076.96
2019-05-13T04:35:18.688Z,98083.74
2019-05-13T04:37:45.546Z,98107.19
2019-05-13T04:40:16.889Z,98126.75
2019-05-13T04:42:44.081Z,98125.33
2019-05-13T04:45:13.372Z,98111.45
2019-05-13T04:47:39.178Z,98108.31
2019-05-13T04:50:05.778Z,98102.73
2019-05-13T04:52:33.228Z,98108.73
2019-05-13T04:55:03.688Z,98106.74
2019-05-13T04:57:33.147Z,98128.64
2019-05-13T05:00:03.613Z,98111.28
2019-05-13T05:02:39.990Z,98087.35
2019-05-13T05:04:56.578Z,98108.55
2019-05-13T05:07:23.659Z,98119.72
2019-05-13T05:10:16.912Z,98117.61
2019-05-13T05:12:22.894Z,98118.05
2019-05-13T05:14:47.401Z,98129.16
2019-05-13T05:17:14.245Z,98130.31
2019-05-13T05:19:43.616Z,98151.81
2019-05-13T05:22:09.218Z,98113.92
2019-05-13T05:24:35.927Z,98134.27
2019-05-13T05:27:02.505Z,98121.68
2019-05-13T05:29:29.187Z,98119.98
2019-05-13T05:31:56.016Z,98145.31
2019-05-13T05:34:23.982Z,98126.56
2019-05-13T05:36:52.634Z,98133.46
2019-05-13T05:39:19.269Z,98150.02
2019-05-13T05:41:45.837Z,98124.11
2019-05-13T05:44:13.478Z,98099.67
2019-05-13T05:46:42.879Z,98140.00
2019-05-13T05:49:12.549Z,98127.66
2019-05-13T05:51:38.288Z,98132.00
2019-05-13T05:54:05.526Z,98126.86
2019-05-13T05:56:33.128Z,98136.20
2019-05-13T05:59:02.763Z,98149.41
2019-05-13T06:01:28.665Z,98151.95
2019-05-13T06:03:55.255Z,98155.44
2019-05-13T06:06:22.962Z,98171.82
2019-05-13T06:08:51.630Z,98151.91
2019-05-13T06:11:18.224Z,98174.29
2019-05-13T06:13:44.857Z,98184.69
2019-05-13T06:16:12.309Z,98165.69
2019-05-13T06:18:41.407Z,98191.22
2019-05-13T06:21:07.271Z,98171.44
2019-05-13T06:23:34.232Z,98183.88
2019-05-13T06:26:01.919Z,98154.76
2019-05-13T06:28:32.076Z,98187.67
2019-05-13T06:30:58.001Z,98193.92
2019-05-13T06:33:24.655Z,98177.66
2019-05-13T06:35:52.174Z,98195.92
2019-05-13T06:38:19.371Z,98195.69
2019-05-13T06:40:59.513Z,98203.31
2019-05-13T06:43:16.127Z,98216.02
2019-05-13T06:45:44.688Z,98180.82
2019-05-13T06:48:14.538Z,98212.80
2019-05-13T06:50:43.280Z,98211.48
2019-05-13T06:53:12.652Z,98197.84
2019-05-13T06:55:41.977Z,98210.43
2019-05-13T06:58:11.266Z,98231.09
2019-05-13T07:00:37.736Z,98231.69
2019-05-13T07:03:07.221Z,98244.66
2019-05-13T07:05:34.195Z,98250.08
2019-05-13T07:08:02.081Z,98240.56
2019-05-13T07:10:32.174Z,98234.34
2019-05-13T07:12:59.329Z,98237.34
2019-05-13T07:15:27.702Z,98233.70
2019-05-13T07:17:55.046Z,98247.66
2019-05-13T07:20:22.699Z,98240.28
2019-05-13T07:22:53.470Z,98241.05
2019-05-13T07:25:22.202Z,98253.75
2019-05-13T07:27:51.389Z,98240.59
2019-05-13T07:30:23.677Z,98238.97
2019-05-13T07:32:53.272Z,98259.46
2019-05-13T07:35:22.654Z,98239.14
2019-05-13T07:37:48.983Z,98235.36
2019-05-13T07:40:18.307Z,98250.11
2019-05-13T07:42:49.147Z,98257.16
2019-05-13T07:45:21.189Z,98266.40
2019-05-13T07:47:47.766Z,98256.67
2019-05-13T07:50:14.642Z,98260.41
2019-05-13T07:52:42.322Z,98273.02
2019-05-13T07:55:11.944Z,98276.34
2019-05-13T07:57:38.004Z,98266.03
2019-05-13T08:00:07.361Z,98261.73
2019-05-13T08:02:34.411Z,98261.71
2019-05-13T08:05:02.351Z,98259.27
2019-05-13T08:07:31.532Z,98271.64
2019-05-13T08:10:00.927Z,98264.79
2019-05-13T08:12:27.022Z,98262.86
2019-05-13T08:14:53.742Z,98266.21
2019-05-13T08:17:22.475Z,98271.84
2019-05-13T08:19:52.038Z,98246.48
2019-05-13T08:22:18.683Z,98247.98
2019-05-13T08:24:45.321Z,98253.49
2019-05-13T08:27:13.463Z,98255.54
2019-05-13T08:29:44.516Z,98263.94
2019-05-13T08:32:11.347Z,98291.90
2019-05-13T08:34:38.550Z,98287.37
2019-05-13T08:37:11.293Z,98280.95
2019-05-13T08:39:38.287Z,98282.08
2019-05-13T08:42:15.541Z,98283.47
2019-05-13T08:44:33.687Z,98278.56
2019-05-13T08:49:32.578Z,98288.37
2019-05-13T08:52:03.768Z,98288.26
2019-05-13T08:54:34.042Z,98305.27
2019-05-13T08:57:04.193Z,98310.48
2019-05-13T08:59:33.126Z,98301.22
2019-05-13T09:02:02.926Z,98302.13
2019-05-13T09:04:32.043Z,98310.74
2019-05-13T09:07:02.134Z,98315.59
2019-05-13T09:09:31.212Z,98319.25
2019-05-13T09:11:57.790Z,98324.20
2019-05-13T09:14:26.053Z,98318.00
2019-05-13T09:16:52.841Z,98323.50
2019-05-13T09:19:22.491Z,98324.65
2019-05-13T09:21:52.699Z,98331.53
2019-05-13T09:24:27.099Z,98320.72
2019-05-13T09:26:49.513Z,98311.48
2019-05-13T09:29:18.244Z,98313.07
2019-05-13T09:31:45.332Z,98305.61
2019-05-13T09:34:14.148Z,98321.42
2019-05-13T09:36:43.008Z,98329.30
2019-05-13T09:39:12.664Z,98316.67
2019-05-13T09:41:41.979Z,98332.64
2019-05-13T09:44:07.999Z,98344.63
2019-05-13T09:46:36.050Z,98337.78
2019-05-13T09:49:16.233Z,98332.75
2019-05-13T09:51:32.382Z,98325.41
2019-05-13T09:54:01.295Z,98328.67
2019-05-13T09:56:31.875Z,98340.00
2019-05-13T09:59:04.006Z,98329.28
2019-05-13T10:01:34.734Z,98330.16
2019-05-13T10:04:02.967Z,98328.67
2019-05-13T10:06:32.752Z,98313.72
2019-05-13T10:09:01.756Z,98309.37
2019-05-13T10:11:28.063Z,98324.20
2019-05-13T10:13:55.674Z,98320.55
2019-05-13T10:16:25.593Z,98328.80
2019-05-13T10:18:52.814Z,98313.53
2019-05-13T10:21:24.640Z,98318.02
2019-05-13T10:23:51.659Z,98307.18
2019-05-13T10:26:18.421Z,98320.86
2019-05-13T10:28:45.781Z,98319.06
2019-05-13T10:31:13.025Z,98298.78
2019-05-13T10:33:42.045Z,98323.89
2019-05-13T10:36:11.885Z,98324.55
2019-05-13T10:38:37.846Z,98340.03
2019-05-13T10:41:05.013Z,98333.68
2019-05-13T10:43:32.768Z,98340.23
2019-05-13T10:46:01.969Z,98327.86
2019-05-13T10:48:28.250Z,98332.35
2019-05-13T10:50:54.965Z,98327.27
2019-05-13T10:53:22.354Z,98340.37
2019-05-13T10:55:51.710Z,98334.92
2019-05-13T10:58:23.025Z,98334.46
2019-05-13T11:00:47.735Z,98338.20
2019-05-13T11:03:14.752Z,98340.62
2019-05-13T11:05:44.657Z,98323.56
2019-05-13T11:08:09.711Z,98332.13
2019-05-13T11:10:36.311Z,98324.71
2019-05-13T11:13:06.225Z,98312.06
2019-05-13T11:15:40.997Z,98327.22
2019-05-13T11:18:02.897Z,98322.52
2019-05-13T11:20:28.667Z,98308.48
2019-05-13T11:22:55.300Z,98316.11
2019-05-13T11:25:21.932Z,98316.34
2019-05-13T11:27:48.767Z,98307.33
2019-05-13T11:30:15.375Z,98313.75
2019-05-13T11:32:42.859Z,98317.16
2019-05-13T11:35:12.875Z,98324.22
2019-05-13T11:37:38.248Z,98308.29
2019-05-13T11:40:04.849Z,98321.52
2019-05-13T11:42:33.218Z,98312.56
2019-05-13T11:44:59.844Z,98306.08
2019-05-13T11:47:26.447Z,98311.03
2019-05-13T11:49:53.350Z,98304.16
2019-05-13T11:52:21.887Z,98305.77
2019-05-13T11:54:48.555Z,98316.84
2019-05-13T11:57:15.409Z,98326.23
2019-05-13T11:59:43.259Z,98315.42
2019-05-13T12:02:13.927Z,98317.64
2019-05-13T12:04:44.192Z,98314.09
2019-05-13T12:07:13.243Z,98319.47
2019-05-13T12:09:41.078Z,98316.63
2019-05-13T12:12:08.632Z,98309.34
2019-05-13T12:14:49.598Z,98313.67
2019-05-13T12:17:06.523Z,98322.08
2019-05-13T12:19:33.375Z,98313.71
2019-05-13T12:22:02.647Z,98326.36
2019-05-13T12:24:29.234Z,98320.50
2019-05-13T12:26:58.437Z,98314.78
2019-05-13T12:29:25.673Z,98314.83
2019-05-13T12:31:54.467Z,98312.44
2019-05-13T12:34:22.856Z,98316.36
2019-05-13T12:36:50.279Z,98313.78
2019-05-13T12:39:17.449Z,98299.65
2019-05-13T12:41:45.285Z,98308.98
2019-05-13T12:44:14.562Z,98300.59
2019-05-13T12:46:48.589Z,98303.94
2019-05-13T12:49:14.191Z,98304.39
2019-05-13T12:51:44.483Z,98294.37
2019-05-13T12:54:12.575Z,98298.79
2019-05-13T12:56:38.275Z,98287.44
2019-05-13T12:59:04.986Z,98289.38
2019-05-13T13:01:32.547Z,98288.44
2019-05-13T13:04:01.615Z,98292.11
2019-05-13T13:06:36.059Z,98288.21
2019-05-13T13:08:56.843Z,98291.88
2019-05-13T13:11:23.496Z,98290.24
2019-05-13T13:14:00.088Z,98272.25
2019-05-13T13:16:18.857Z,98276.01
2019-05-13T13:18:45.830Z,98276.73
2019-05-13T13:21:14.452Z,98277.35
2019-05-13T13:23:42.778Z,98258.55
2019-05-13T13:26:15.278Z,98274.00
2019-05-13T13:28:37.708Z,98276.73
2019-05-13T13:31:04.624Z,98275.45
2019-05-13T13:33:34.283Z,98277.55
2019-05-13T13:36:04.082Z,98282.23
2019-05-13T13:38:28.491Z,98280.62
2019-05-13T13:40:55.158Z,98276.75
2019-05-13T13:43:24.739Z,98277.90
2019-05-13T13:46:07.401Z,98271.17
2019-05-13T13:48:18.728Z,98277.24
2019-05-13T13:50:45.599Z,98277.10
2019-05-13T13:53:14.138Z,98280.44
2019-05-13T13:55:44.444Z,98277.67
2019-05-13T13:58:09.184Z,98273.48
2019-05-13T14:00:47.282Z,98279.53
2019-05-13T14:03:06.606Z,98291.50
2019-05-13T14:05:36.267Z,98276.52
2019-05-13T14:08:01.794Z,98287.79
2019-05-13T14:10:29.129Z,98285.70
2019-05-13T14:12:55.955Z,98276.43
2019-05-13T14:15:22.763Z,98276.30
2019-05-13T14:20:21.977Z,98268.70
2019-05-13T14:22:48.772Z,98269.80
2019-05-13T14:25:15.432Z,98265.66
2019-05-13T14:27:42.307Z,98263.81
2019-05-13T14:30:08.914Z,98248.77
2019-05-13T14:32:35.978Z,98251.35
2019-05-13T14:35:02.839Z,98240.19
2019-05-13T14:37:31.815Z,98262.39
2019-05-13T14:39:58.261Z,98250.75
2019-05-13T14:42:24.921Z,98252.22
2019-05-13T14:44:52.234Z,98272.09
2019-05-13T14:47:21.800Z,98277.16
2019-05-13T14:49:48.597Z,98258.50
2019-05-13T14:52:15.401Z,98253.19
2019-05-13T14:54:42.272Z,98261.50
2019-05-13T14:57:11.951Z,98254.41
2019-05-13T14:59:37.833Z,98264.56
2019-05-13T15:02:04.725Z,98263.96
2019-05-13T15:04:32.486Z,98270.25
2019-05-13T15:06:59.879Z,98275.74
2019-05-13T15:09:26.941Z,98273.30
2019-05-13T15:11:53.529Z,98279.53
2019-05-13T15:14:21.986Z,98288.15
2019-05-13T15:17:02.272Z,98289.48
2019-05-13T15:19:17.356Z,98284.66
2019-05-13T15:21:43.981Z,98271.49
2019-05-13T15:24:12.392Z,98276.25
2019-05-13T15:26:42.006Z,98272.25
2019-05-13T15:29:08.187Z,98296.66
2019-05-13T15:31:34.808Z,98285.87
2019-05-13T15:34:02.627Z,98290.25
2019-05-13T15:36:31.364Z,98294.11
2019-05-13T15:38:57.949Z,98296.09
2019-05-13T15:41:24.814Z,98299.53
2019-05-13T15:43:52.103Z,98287.59
2019-05-13T15:46:22.438Z,98284.50
2019-05-13T15:48:51.186Z,98288.33
2019-05-13T15:51:17.339Z,98297.59
2019-05-13T15:53:46.503Z,98293.70
2019-05-13T15:56:13.139Z,98299.70
2019-05-13T15:58:44.066Z,98301.03
2019-05-13T16:01:08.388Z,98299.89
2019-05-13T16:03:35.245Z,98300.07
2019-05-13T16:06:02.098Z,98288.83
2019-05-13T16:08:31.249Z,98287.36
2019-05-13T16:10:57.419Z,98286.67
2019-05-13T16:13:24.092Z,98289.84
2019-05-13T16:15:50.743Z,98292.50
2019-05-13T16:18:18.819Z,98293.53
2019-05-13T16:20:45.586Z,98304.46
2019-05-13T16:23:12.552Z,98298.92
2019-05-13T16:25:41.555Z,98305.30
2019-05-13T16:28:07.668Z,98296.23
2019-05-13T16:30:37.559Z,98298.76
2019-05-13T16:33:04.323Z,98306.02
2019-05-13T16:35:31.880Z,98301.35
2019-05-13T16:37:58.860Z,98308.87
2019-05-13T16:40:25.689Z,98311.48
2019-05-13T16:42:52.312Z,98315.63
2019-05-13T16:45:18.897Z,98314.70
2019-05-13T16:47:56.907Z,98305.05
2019-05-13T16:50:13.958Z,98317.73
2019-05-13T16:52:41.794Z,98312.36
2019-05-13T16:55:08.525Z,98323.07
2019-05-13T16:57:35.448Z,98311.96
2019-05-13T17:00:02.580Z,98308.08
2019-05-13T17:02:29.614Z,98324.53
2019-05-13T17:04:56.427Z,98318.16
2019-05-13T17:07:23.556Z,98317.13
2019-05-13T17:09:52.118Z,98323.73
2019-05-13T17:12:18.510Z,98336.91
2019-05-13T17:14:45.189Z,98333.04
2019-05-13T17:17:12.192Z,98336.33
2019-05-13T17:19:39.047Z,98338.36
2019-05-13T17:22:05.659Z,98338.66
2019-05-13T17:24:32.532Z,98331.55
2019-05-13T17:27:01.392Z,98338.64
2019-05-13T17:29:28.039Z,98339.08
2019-05-13T17:31:54.676Z,98342.50
2019-05-13T17:34:21.284Z,98345.86
2019-05-13T17:36:48.098Z,98332.75
2019-05-13T17:39:24.441Z,98346.69
2019-05-13T17:41:52.882Z,98351.64
2019-05-13T17:44:21.844Z,98363.61
2019-05-13T17:46:52.245Z,98371.06
2019-05-13T17:49:18.852Z,98370.81
2019-05-13T17:51:45.493Z,98365.00
2019-05-13T17:54:12.118Z,98354.37
2019-05-13T17:56:38.930Z,98356.06
2019-05-13T17:59:05.727Z,98357.90
2019-05-13T18:01:32.375Z,98369.94
2019-05-13T18:03:58.970Z,98375.91
2019-05-13T18:06:25.679Z,98372.06
2019-05-13T18:08:52.209Z,98378.61
2019-05-13T18:11:18.708Z,98382.34
2019-05-13T18:18:47.910Z,98394.27
2019-05-13T18:21:15.332Z,98388.13
2019-05-13T18:23:42.314Z,98389.24
2019-05-13T18:26:12.798Z,98381.10
2019-05-13T18:28:42.172Z,98378.28
2019-05-13T18:31:08.630Z,98396.66
2019-05-13T18:36:31.752Z,98380.35
2019-05-13T18:38:57.184Z,98379.60
2019-05-13T18:41:41.614Z,98397.16
2019-05-13T18:44:20.402Z,98387.57
2019-05-13T18:49:23.043Z,98397.66
2019-05-13T18:51:49.531Z,98381.95
2019-05-13T18:54:16.341Z,98399.16
2019-05-13T18:56:46.296Z,98389.27
2019-05-13T18:59:12.581Z,98393.75
2019-05-13T19:01:39.562Z,98403.64
2019-05-13T19:04:06.511Z,98397.80
2019-05-13T19:06:33.256Z,98417.33
2019-05-13T19:09:02.210Z,98395.83
2019-05-13T19:11:31.563Z,98395.96
2019-05-13T19:13:58.008Z,98399.25
2019-05-13T19:16:25.471Z,98406.98
2019-05-13T19:18:52.385Z,98413.84
2019-05-13T19:21:21.721Z,98411.83
2019-05-13T19:23:48.206Z,98397.15
2019-05-13T19:26:21.755Z,98413.16
2019-05-13T19:28:56.751Z,98412.13
2019-05-13T19:31:24.254Z,98412.50
2019-05-13T19:33:52.080Z,98393.65
2019-05-13T19:36:21.016Z,98390.13
2019-05-13T19:41:22.130Z,98390.49
2019-05-13T19:43:51.063Z,98397.02
2019-05-13T19:46:18.278Z,98386.80
2019-05-13T19:48:45.078Z,98385.03
2019-05-13T19:51:11.670Z,98387.70
2019-05-13T19:53:41.015Z,98387.08
2019-05-13T19:56:07.169Z,98384.09
2019-05-13T19:58:33.985Z,98387.82
2019-05-13T20:01:00.844Z,98386.63
2019-05-13T20:03:32.061Z,98393.38
2019-05-13T20:06:01.935Z,98401.05
2019-05-13T20:08:32.064Z,98377.00
2019-05-13T20:11:02.843Z,98375.55
2019-05-13T20:13:29.517Z,98381.48
2019-05-13T20:15:56.018Z,98384.52
2019-05-13T20:18:26.082Z,98382.36
2019-05-13T20:20:53.620Z,98386.70
2019-05-13T20:23:21.283Z,98386.84
2019-05-13T20:25:48.095Z,98382.11
2019-05-13T20:28:15.120Z,98383.41
2019-05-13T20:30:45.419Z,98374.36
2019-05-13T20:33:13.092Z,98372.42
2019-05-13T20:35:42.099Z,98368.19
2019-05-13T20:38:08.916Z,98376.63
2019-05-13T20:40:36.648Z,98362.69
2019-05-13T20:43:03.141Z,98379.81
2019-05-13T20:45:31.203Z,98365.33
2019-05-13T20:48:01.333Z,98379.85
2019-05-13T20:50:31.686Z,98384.70
2019-05-13T20:52:58.713Z,98380.06
2019-05-13T20:55:26.011Z,98383.47
2019-05-13T20:57:53.884Z,98375.51
2019-05-13T21:00:20.489Z,98378.59
2019-05-13T21:02:47.662Z,98360.58
2019-05-13T21:05:14.414Z,98364.11
2019-05-13T21:07:41.713Z,98366.45
2019-05-13T21:10:08.741Z,98359.95
2019-05-13T21:12:35.317Z,98361.22
2019-05-13T21:15:01.952Z,98367.70
2019-05-13T21:17:29.050Z,98362.56
2019-05-13T21:20:18.182Z,98369.85
2019-05-13T21:22:31.822Z,98356.88
2019-05-13T21:24:58.523Z,98363.06
2019-05-13T21:27:25.066Z,98367.14
2019-05-13T21:29:52.031Z,98353.28
2019-05-13T21:32:21.211Z,98363.80
2019-05-13T21:34:46.954Z,98371.80
2019-05-13T21:37:13.603Z,98361.98
2019-05-13T21:39:41.242Z,98356.31
2019-05-13T21:42:07.952Z,98361.09
2019-05-13T21:44:35.773Z,98354.30
2019-05-13T21:47:02.802Z,98361.48
2019-05-13T21:49:31.833Z,98363.10
2019-05-13T21:51:57.865Z,98359.47
2019-05-13T21:54:24.647Z,98351.94
2019-05-13T21:56:51.553Z,98353.63
2019-05-13T21:59:18.300Z,98353.04
2019-05-13T22:01:45.711Z,98347.37
2019-05-13T22:04:12.543Z,98344.08
2019-05-13T22:06:39.104Z,98327.84
2019-05-13T22:09:05.944Z,98332.44
2019-05-13T22:11:35.111Z,98341.81
2019-05-13T22:14:01.773Z,98333.92
2019-05-13T22:16:28.448Z,98323.66
2019-05-13T22:18:55.063Z,98324.93
2019-05-13T22:21:21.700Z,98327.66
2019-05-13T22:23:48.397Z,98331.80
2019-05-13T22:26:15.251Z,98328.39
2019-05-13T22:28:41.901Z,98324.68
2019-05-13T22:31:08.592Z,98318.80
2019-05-13T22:33:36.804Z,98314.44
2019-05-13T22:36:03.387Z,98322.13
2019-05-13T22:38:32.416Z,98328.92
2019-05-13T22:41:01.059Z,98325.16
2019-05-13T22:43:31.967Z,98323.78
2019-05-13T22:46:02.160Z,98343.01
2019-05-13T22:48:31.714Z,98321.58
2019-05-13T22:51:01.642Z,98324.17
2019-05-13T22:53:34.030Z,98337.79
2019-05-13T22:56:02.980Z,98320.00
2019-05-13T22:58:31.829Z,98332.98
2019-05-13T23:01:04.104Z,98330.61
2019-05-13T23:03:32.366Z,98332.04
2019-05-13T23:06:01.414Z,98329.08
2019-05-13T23:08:32.313Z,98319.17
2019-05-13T23:11:04.773Z,98313.38
2019-05-13T23:13:33.985Z,98323.75
2019-05-13T23:16:02.379Z,98318.84
2019-05-13T23:18:31.438Z,98324.37
2019-05-13T23:21:02.221Z,98307.45
2019-05-13T23:23:31.158Z,98314.64
2019-05-13T23:26:08.195Z,98307.27
2019-05-13T23:28:36.094Z,98300.91
2019-05-13T23:31:03.331Z,98319.56
2019-05-13T23:33:36.077Z,98315.14
2019-05-13T23:36:02.894Z,98313.07
2019-05-13T23:38:31.922Z,98307.60
2019-05-13T23:41:02.005Z,98312.82
2019-05-13T23:43:33.290Z,98297.78
2019-05-13T23:46:01.409Z,98314.52
2019-05-13T23:48:28.590Z,98299.33
2019-05-13T23:50:57.340Z,98301.22
2019-05-13T23:53:24.347Z,98289.14
2019-05-13T23:55:52.263Z,98285.61
2019-05-13T23:58:21.885Z,98282.07
